sensor_id;sensor_type;location;lat;lon;timestamp;P1;durP1;ratioP1;P2;durP2;ratioP2
41923;SDS011;27613;48.116;11.656;2023-05-15T00:02:06;3.20;;;2.60;;
41923;SDS011;27613;48.116;11.656;2023-05-15T00:04:32;3.80;;;2.67;;
41923;SDS011;27613;48.116;11.656;2023-05-15T00:06:58;3.53;;;2.80;;
41923;SDS011;27613;48.116;11.656;2023-05-15T00:09:23;6.22;;;2.60;;
41923;SDS011;27613;48.116;11.656;2023-05-15T00:11:49;3.35;;;2.30;;
41923;SDS011;27613;48.116;11.656;2023-05-15T00:14:15;2.63;;;2.22;;
41923;SDS011;27613;48.116;11.656;2023-05-15T00:16:40;3.35;;;2.63;;
41923;SDS011;27613;48.116;11.656;2023-05-15T00:19:06;3.38;;;2.75;;
41923;SDS011;27613;48.116;11.656;2023-05-15T00:21:31;3.53;;;2.80;;
41923;SDS011;27613;48.116;11.656;2023-05-15T00:23:57;3.38;;;2.55;;
41923;SDS011;27613;48.116;11.656;2023-05-15T00:26:22;3.60;;;2.38;;
41923;SDS011;27613;48.116;11.656;2023-05-15T00:28:48;2.95;;;2.25;;
41923;SDS011;27613;48.116;11.656;2023-05-15T00:31:14;3.70;;;2.97;;
41923;SDS011;27613;48.116;11.656;2023-05-15T00:33:40;2.97;;;2.33;;
41923;SDS011;27613;48.116;11.656;2023-05-15T00:36:06;6.75;;;2.60;;
41923;SDS011;27613;48.116;11.656;2023-05-15T00:38:32;4.07;;;2.72;;
41923;SDS011;27613;48.116;11.656;2023-05-15T00:40:58;3.58;;;2.65;;
41923;SDS011;27613;48.116;11.656;2023-05-15T00:43:25;2.60;;;2.17;;
41923;SDS011;27613;48.116;11.656;2023-05-15T00:45:52;4.03;;;2.55;;
41923;SDS011;27613;48.116;11.656;2023-05-15T00:48:19;3.10;;;2.47;;
41923;SDS011;27613;48.116;11.656;2023-05-15T00:50:48;2.90;;;2.22;;
41923;SDS011;27613;48.116;11.656;2023-05-15T00:53:15;5.05;;;2.47;;
41923;SDS011;27613;48.116;11.656;2023-05-15T00:55:43;3.38;;;2.78;;
41923;SDS011;27613;48.116;11.656;2023-05-15T00:58:10;3.30;;;2.45;;
41923;SDS011;27613;48.116;11.656;2023-05-15T01:00:38;2.72;;;2.22;;
41923;SDS011;27613;48.116;11.656;2023-05-15T01:03:04;3.67;;;2.63;;
41923;SDS011;27613;48.116;11.656;2023-05-15T01:05:30;3.63;;;2.67;;
41923;SDS011;27613;48.116;11.656;2023-05-15T01:08:00;3.50;;;2.60;;
41923;SDS011;27613;48.116;11.656;2023-05-15T01:10:42;3.50;;;2.78;;
41923;SDS011;27613;48.116;11.656;2023-05-15T01:13:09;3.03;;;2.35;;
41923;SDS011;27613;48.116;11.656;2023-05-15T01:15:37;3.47;;;2.72;;
41923;SDS011;27613;48.116;11.656;2023-05-15T01:18:03;5.13;;;3.05;;
41923;SDS011;27613;48.116;11.656;2023-05-15T01:20:29;3.28;;;2.50;;
41923;SDS011;27613;48.116;11.656;2023-05-15T01:23:11;4.35;;;2.63;;
41923;SDS011;27613;48.116;11.656;2023-05-15T01:25:59;3.28;;;2.72;;
41923;SDS011;27613;48.116;11.656;2023-05-15T01:30:58;3.33;;;2.42;;
41923;SDS011;27613;48.116;11.656;2023-05-15T01:33:34;3.80;;;2.80;;
41923;SDS011;27613;48.116;11.656;2023-05-15T01:38:52;3.65;;;2.85;;
41923;SDS011;27613;48.116;11.656;2023-05-15T01:41:30;3.47;;;2.67;;
41923;SDS011;27613;48.116;11.656;2023-05-15T01:44:17;3.55;;;3.00;;
41923;SDS011;27613;48.116;11.656;2023-05-15T01:46:50;3.88;;;2.90;;
41923;SDS011;27613;48.116;11.656;2023-05-15T01:49:19;3.83;;;3.08;;
41923;SDS011;27613;48.116;11.656;2023-05-15T01:51:48;3.60;;;3.03;;
41923;SDS011;27613;48.116;11.656;2023-05-15T01:54:18;4.25;;;3.30;;
41923;SDS011;27613;48.116;11.656;2023-05-15T01:56:44;3.95;;;3.40;;
41923;SDS011;27613;48.116;11.656;2023-05-15T01:59:13;4.25;;;3.28;;
41923;SDS011;27613;48.116;11.656;2023-05-15T02:01:40;4.40;;;3.20;;
41923;SDS011;27613;48.116;11.656;2023-05-15T02:04:07;5.07;;;3.50;;
41923;SDS011;27613;48.116;11.656;2023-05-15T02:06:33;5.55;;;3.90;;
41923;SDS011;27613;48.116;11.656;2023-05-15T02:09:00;4.90;;;3.70;;
41923;SDS011;27613;48.116;11.656;2023-05-15T02:11:26;5.32;;;4.15;;
41923;SDS011;27613;48.116;11.656;2023-05-15T02:13:52;4.20;;;3.53;;
41923;SDS011;27613;48.116;11.656;2023-05-15T02:16:20;5.82;;;4.32;;
41923;SDS011;27613;48.116;11.656;2023-05-15T02:18:46;5.15;;;4.30;;
41923;SDS011;27613;48.116;11.656;2023-05-15T02:21:12;6.97;;;4.78;;
41923;SDS011;27613;48.116;11.656;2023-05-15T02:23:38;4.53;;;3.85;;
41923;SDS011;27613;48.116;11.656;2023-05-15T02:26:13;5.13;;;4.47;;
41923;SDS011;27613;48.116;11.656;2023-05-15T02:28:49;6.68;;;5.15;;
41923;SDS011;27613;48.116;11.656;2023-05-15T02:31:45;5.88;;;4.63;;
41923;SDS011;27613;48.116;11.656;2023-05-15T02:37:00;5.35;;;4.32;;
41923;SDS011;27613;48.116;11.656;2023-05-15T02:39:27;5.68;;;4.80;;
41923;SDS011;27613;48.116;11.656;2023-05-15T02:41:53;6.43;;;5.20;;
41923;SDS011;27613;48.116;11.656;2023-05-15T02:44:20;5.90;;;4.88;;
41923;SDS011;27613;48.116;11.656;2023-05-15T02:46:46;6.18;;;5.38;;
41923;SDS011;27613;48.116;11.656;2023-05-15T02:49:14;5.90;;;4.90;;
41923;SDS011;27613;48.116;11.656;2023-05-15T02:51:39;7.38;;;5.85;;
41923;SDS011;27613;48.116;11.656;2023-05-15T02:54:05;7.47;;;5.63;;
41923;SDS011;27613;48.116;11.656;2023-05-15T02:56:32;6.60;;;5.50;;
41923;SDS011;27613;48.116;11.656;2023-05-15T02:58:58;5.65;;;4.95;;
41923;SDS011;27613;48.116;11.656;2023-05-15T03:01:24;8.07;;;5.65;;
41923;SDS011;27613;48.116;11.656;2023-05-15T03:03:49;7.90;;;5.68;;
41923;SDS011;27613;48.116;11.656;2023-05-15T03:06:15;6.05;;;4.97;;
41923;SDS011;27613;48.116;11.656;2023-05-15T03:08:41;5.55;;;4.95;;
41923;SDS011;27613;48.116;11.656;2023-05-15T03:11:06;7.32;;;5.63;;
41923;SDS011;27613;48.116;11.656;2023-05-15T03:13:32;54.35;;;14.25;;
41923;SDS011;27613;48.116;11.656;2023-05-15T03:15:57;6.88;;;5.35;;
41923;SDS011;27613;48.116;11.656;2023-05-15T03:18:23;6.13;;;5.25;;
41923;SDS011;27613;48.116;11.656;2023-05-15T03:20:48;8.73;;;4.95;;
41923;SDS011;27613;48.116;11.656;2023-05-15T03:23:16;5.53;;;4.60;;
41923;SDS011;27613;48.116;11.656;2023-05-15T03:25:42;6.90;;;5.03;;
41923;SDS011;27613;48.116;11.656;2023-05-15T03:28:07;5.57;;;4.40;;
41923;SDS011;27613;48.116;11.656;2023-05-15T03:30:33;5.70;;;4.53;;
41923;SDS011;27613;48.116;11.656;2023-05-15T03:32:58;4.70;;;3.78;;
41923;SDS011;27613;48.116;11.656;2023-05-15T03:35:27;7.63;;;3.95;;
41923;SDS011;27613;48.116;11.656;2023-05-15T03:37:53;5.28;;;4.25;;
41923;SDS011;27613;48.116;11.656;2023-05-15T03:40:18;5.95;;;4.03;;
41923;SDS011;27613;48.116;11.656;2023-05-15T03:42:44;5.80;;;4.18;;
41923;SDS011;27613;48.116;11.656;2023-05-15T03:45:09;5.60;;;4.35;;
41923;SDS011;27613;48.116;11.656;2023-05-15T03:47:35;5.82;;;3.83;;
41923;SDS011;27613;48.116;11.656;2023-05-15T03:50:01;5.75;;;3.97;;
41923;SDS011;27613;48.116;11.656;2023-05-15T03:52:26;4.75;;;3.65;;
41923;SDS011;27613;48.116;11.656;2023-05-15T03:54:52;4.25;;;3.30;;
41923;SDS011;27613;48.116;11.656;2023-05-15T03:57:17;4.70;;;3.75;;
41923;SDS011;27613;48.116;11.656;2023-05-15T03:59:43;5.43;;;4.05;;
41923;SDS011;27613;48.116;11.656;2023-05-15T04:02:08;5.22;;;4.05;;
41923;SDS011;27613;48.116;11.656;2023-05-15T04:04:34;5.47;;;4.10;;
41923;SDS011;27613;48.116;11.656;2023-05-15T04:07:00;4.95;;;3.83;;
41923;SDS011;27613;48.116;11.656;2023-05-15T04:09:26;5.45;;;3.78;;
41923;SDS011;27613;48.116;11.656;2023-05-15T04:11:52;4.85;;;3.67;;
41923;SDS011;27613;48.116;11.656;2023-05-15T04:14:17;5.10;;;3.92;;
41923;SDS011;27613;48.116;11.656;2023-05-15T04:16:43;5.82;;;3.88;;
41923;SDS011;27613;48.116;11.656;2023-05-15T04:19:08;7.40;;;5.20;;
41923;SDS011;27613;48.116;11.656;2023-05-15T04:21:34;5.93;;;4.18;;
41923;SDS011;27613;48.116;11.656;2023-05-15T04:23:59;4.88;;;3.95;;
41923;SDS011;27613;48.116;11.656;2023-05-15T04:26:25;7.82;;;4.25;;
41923;SDS011;27613;48.116;11.656;2023-05-15T04:28:50;10.45;;;4.43;;
41923;SDS011;27613;48.116;11.656;2023-05-15T04:31:16;6.93;;;4.35;;
41923;SDS011;27613;48.116;11.656;2023-05-15T04:33:41;5.88;;;4.40;;
41923;SDS011;27613;48.116;11.656;2023-05-15T04:36:07;5.72;;;4.38;;
41923;SDS011;27613;48.116;11.656;2023-05-15T04:38:33;6.97;;;4.75;;
41923;SDS011;27613;48.116;11.656;2023-05-15T04:40:59;5.30;;;3.92;;
41923;SDS011;27613;48.116;11.656;2023-05-15T04:43:24;6.15;;;4.80;;
41923;SDS011;27613;48.116;11.656;2023-05-15T04:45:50;6.90;;;5.10;;
41923;SDS011;27613;48.116;11.656;2023-05-15T04:48:15;7.03;;;4.70;;
41923;SDS011;27613;48.116;11.656;2023-05-15T04:50:43;6.30;;;4.93;;
41923;SDS011;27613;48.116;11.656;2023-05-15T04:53:08;5.90;;;4.75;;
41923;SDS011;27613;48.116;11.656;2023-05-15T04:55:34;5.35;;;4.57;;
41923;SDS011;27613;48.116;11.656;2023-05-15T04:58:00;5.90;;;4.40;;
41923;SDS011;27613;48.116;11.656;2023-05-15T05:00:25;5.90;;;4.72;;
41923;SDS011;27613;48.116;11.656;2023-05-15T05:02:52;10.35;;;4.70;;
41923;SDS011;27613;48.116;11.656;2023-05-15T05:05:17;5.78;;;4.07;;
41923;SDS011;27613;48.116;11.656;2023-05-15T05:07:43;6.55;;;4.38;;
41923;SDS011;27613;48.116;11.656;2023-05-15T05:10:10;5.63;;;4.43;;
41923;SDS011;27613;48.116;11.656;2023-05-15T05:12:36;5.95;;;4.15;;
41923;SDS011;27613;48.116;11.656;2023-05-15T05:15:01;4.95;;;4.10;;
41923;SDS011;27613;48.116;11.656;2023-05-15T05:17:28;5.68;;;4.00;;
41923;SDS011;27613;48.116;11.656;2023-05-15T05:19:54;5.05;;;4.30;;
41923;SDS011;27613;48.116;11.656;2023-05-15T05:22:19;5.32;;;4.22;;
41923;SDS011;27613;48.116;11.656;2023-05-15T05:24:45;4.78;;;4.25;;
41923;SDS011;27613;48.116;11.656;2023-05-15T05:27:10;5.50;;;4.53;;
41923;SDS011;27613;48.116;11.656;2023-05-15T05:29:36;5.32;;;4.57;;
41923;SDS011;27613;48.116;11.656;2023-05-15T05:32:02;5.47;;;4.43;;
41923;SDS011;27613;48.116;11.656;2023-05-15T05:34:27;6.60;;;4.38;;
41923;SDS011;27613;48.116;11.656;2023-05-15T05:36:53;5.95;;;4.32;;
41923;SDS011;27613;48.116;11.656;2023-05-15T05:39:19;5.50;;;4.68;;
41923;SDS011;27613;48.116;11.656;2023-05-15T05:41:44;6.63;;;4.75;;
41923;SDS011;27613;48.116;11.656;2023-05-15T05:44:10;8.23;;;5.00;;
41923;SDS011;27613;48.116;11.656;2023-05-15T05:46:35;9.63;;;5.28;;
41923;SDS011;27613;48.116;11.656;2023-05-15T05:49:01;7.35;;;5.05;;
41923;SDS011;27613;48.116;11.656;2023-05-15T05:51:27;6.40;;;4.22;;
41923;SDS011;27613;48.116;11.656;2023-05-15T05:53:52;5.28;;;4.20;;
41923;SDS011;27613;48.116;11.656;2023-05-15T05:56:18;5.38;;;4.20;;
41923;SDS011;27613;48.116;11.656;2023-05-15T05:58:44;5.00;;;4.20;;
41923;SDS011;27613;48.116;11.656;2023-05-15T06:01:09;4.63;;;3.83;;
41923;SDS011;27613;48.116;11.656;2023-05-15T06:03:35;4.85;;;3.88;;
41923;SDS011;27613;48.116;11.656;2023-05-15T06:06:02;5.30;;;3.92;;
41923;SDS011;27613;48.116;11.656;2023-05-15T06:08:27;5.28;;;4.32;;
41923;SDS011;27613;48.116;11.656;2023-05-15T06:10:53;5.65;;;4.10;;
41923;SDS011;27613;48.116;11.656;2023-05-15T06:13:19;5.10;;;4.03;;
41923;SDS011;27613;48.116;11.656;2023-05-15T06:15:44;4.85;;;3.78;;
41923;SDS011;27613;48.116;11.656;2023-05-15T06:18:11;6.10;;;4.38;;
41923;SDS011;27613;48.116;11.656;2023-05-15T06:20:36;5.45;;;4.10;;
41923;SDS011;27613;48.116;11.656;2023-05-15T06:23:02;5.45;;;3.95;;
41923;SDS011;27613;48.116;11.656;2023-05-15T06:25:27;5.97;;;4.35;;
41923;SDS011;27613;48.116;11.656;2023-05-15T06:27:53;4.97;;;3.72;;
41923;SDS011;27613;48.116;11.656;2023-05-15T06:30:19;4.00;;;3.10;;
41923;SDS011;27613;48.116;11.656;2023-05-15T06:32:45;4.13;;;3.38;;
41923;SDS011;27613;48.116;11.656;2023-05-15T06:35:10;8.77;;;3.78;;
41923;SDS011;27613;48.116;11.656;2023-05-15T06:37:36;4.47;;;3.63;;
41923;SDS011;27613;48.116;11.656;2023-05-15T06:40:03;4.25;;;3.28;;
41923;SDS011;27613;48.116;11.656;2023-05-15T06:42:29;5.70;;;3.92;;
41923;SDS011;27613;48.116;11.656;2023-05-15T06:44:55;5.22;;;3.50;;
41923;SDS011;27613;48.116;11.656;2023-05-15T06:47:20;5.00;;;3.60;;
41923;SDS011;27613;48.116;11.656;2023-05-15T06:49:46;5.50;;;4.00;;
41923;SDS011;27613;48.116;11.656;2023-05-15T06:52:11;4.28;;;3.30;;
41923;SDS011;27613;48.116;11.656;2023-05-15T06:54:37;4.53;;;3.58;;
41923;SDS011;27613;48.116;11.656;2023-05-15T06:57:04;4.25;;;3.40;;
41923;SDS011;27613;48.116;11.656;2023-05-15T06:59:30;5.47;;;3.17;;
41923;SDS011;27613;48.116;11.656;2023-05-15T07:01:58;4.40;;;3.38;;
41923;SDS011;27613;48.116;11.656;2023-05-15T07:04:24;4.43;;;3.17;;
41923;SDS011;27613;48.116;11.656;2023-05-15T07:06:50;4.63;;;3.63;;
41923;SDS011;27613;48.116;11.656;2023-05-15T07:09:15;3.42;;;2.88;;
41923;SDS011;27613;48.116;11.656;2023-05-15T07:11:41;3.70;;;3.00;;
41923;SDS011;27613;48.116;11.656;2023-05-15T07:14:06;3.53;;;2.80;;
41923;SDS011;27613;48.116;11.656;2023-05-15T07:16:32;4.10;;;2.78;;
41923;SDS011;27613;48.116;11.656;2023-05-15T07:18:57;3.65;;;2.72;;
41923;SDS011;27613;48.116;11.656;2023-05-15T07:21:24;3.55;;;2.80;;
41923;SDS011;27613;48.116;11.656;2023-05-15T07:23:49;4.68;;;3.40;;
41923;SDS011;27613;48.116;11.656;2023-05-15T07:26:15;2.80;;;2.35;;
41923;SDS011;27613;48.116;11.656;2023-05-15T07:28:40;3.20;;;2.50;;
41923;SDS011;27613;48.116;11.656;2023-05-15T07:31:06;4.28;;;2.42;;
41923;SDS011;27613;48.116;11.656;2023-05-15T07:33:32;3.85;;;2.92;;
41923;SDS011;27613;48.116;11.656;2023-05-15T07:35:57;3.38;;;2.85;;
41923;SDS011;27613;48.116;11.656;2023-05-15T07:38:23;3.55;;;2.70;;
41923;SDS011;27613;48.116;11.656;2023-05-15T07:40:49;5.03;;;3.00;;
41923;SDS011;27613;48.116;11.656;2023-05-15T07:43:15;2.92;;;2.35;;
41923;SDS011;27613;48.116;11.656;2023-05-15T07:45:40;2.70;;;2.20;;
41923;SDS011;27613;48.116;11.656;2023-05-15T07:48:12;3.83;;;2.72;;
41923;SDS011;27613;48.116;11.656;2023-05-15T07:50:39;4.15;;;2.55;;
41923;SDS011;27613;48.116;11.656;2023-05-15T07:53:05;2.80;;;2.22;;
41923;SDS011;27613;48.116;11.656;2023-05-15T07:55:30;3.97;;;2.38;;
41923;SDS011;27613;48.116;11.656;2023-05-15T07:57:56;2.22;;;1.77;;
41923;SDS011;27613;48.116;11.656;2023-05-15T08:00:22;2.08;;;1.67;;
41923;SDS011;27613;48.116;11.656;2023-05-15T08:02:47;2.95;;;1.90;;
41923;SDS011;27613;48.116;11.656;2023-05-15T08:05:13;3.15;;;2.10;;
41923;SDS011;27613;48.116;11.656;2023-05-15T08:07:38;2.58;;;1.80;;
41923;SDS011;27613;48.116;11.656;2023-05-15T08:10:04;5.10;;;2.33;;
41923;SDS011;27613;48.116;11.656;2023-05-15T08:12:31;6.95;;;1.92;;
41923;SDS011;27613;48.116;11.656;2023-05-15T08:14:56;3.35;;;1.50;;
41923;SDS011;27613;48.116;11.656;2023-05-15T08:17:23;2.20;;;1.55;;
41923;SDS011;27613;48.116;11.656;2023-05-15T08:19:49;2.92;;;1.65;;
41923;SDS011;27613;48.116;11.656;2023-05-15T08:22:15;1.98;;;1.58;;
41923;SDS011;27613;48.116;11.656;2023-05-15T08:24:40;2.00;;;1.33;;
41923;SDS011;27613;48.116;11.656;2023-05-15T08:27:07;2.97;;;1.90;;
41923;SDS011;27613;48.116;11.656;2023-05-15T08:29:33;2.10;;;1.60;;
41923;SDS011;27613;48.116;11.656;2023-05-15T08:31:59;1.48;;;1.30;;
41923;SDS011;27613;48.116;11.656;2023-05-15T08:34:25;1.75;;;1.27;;
41923;SDS011;27613;48.116;11.656;2023-05-15T08:36:51;1.95;;;1.38;;
41923;SDS011;27613;48.116;11.656;2023-05-15T08:39:17;1.88;;;1.33;;
41923;SDS011;27613;48.116;11.656;2023-05-15T08:41:47;1.85;;;1.35;;
41923;SDS011;27613;48.116;11.656;2023-05-15T08:44:18;2.95;;;2.03;;
41923;SDS011;27613;48.116;11.656;2023-05-15T08:46:46;6.00;;;1.48;;
41923;SDS011;27613;48.116;11.656;2023-05-15T08:49:21;1.83;;;1.30;;
41923;SDS011;27613;48.116;11.656;2023-05-15T08:52:10;2.22;;;1.50;;
41923;SDS011;27613;48.116;11.656;2023-05-15T08:54:36;1.45;;;1.30;;
41923;SDS011;27613;48.116;11.656;2023-05-15T08:57:03;7.57;;;1.80;;
41923;SDS011;27613;48.116;11.656;2023-05-15T08:59:30;1.58;;;1.25;;
41923;SDS011;27613;48.116;11.656;2023-05-15T09:01:55;1.48;;;1.38;;
41923;SDS011;27613;48.116;11.656;2023-05-15T09:04:21;2.85;;;1.95;;
41923;SDS011;27613;48.116;11.656;2023-05-15T09:06:47;1.80;;;1.58;;
41923;SDS011;27613;48.116;11.656;2023-05-15T09:09:13;2.20;;;1.67;;
41923;SDS011;27613;48.116;11.656;2023-05-15T09:11:43;2.63;;;1.52;;
41923;SDS011;27613;48.116;11.656;2023-05-15T09:14:09;2.90;;;1.60;;
41923;SDS011;27613;48.116;11.656;2023-05-15T09:16:35;3.50;;;1.85;;
41923;SDS011;27613;48.116;11.656;2023-05-15T09:19:01;2.58;;;1.73;;
41923;SDS011;27613;48.116;11.656;2023-05-15T09:21:28;4.32;;;2.28;;
41923;SDS011;27613;48.116;11.656;2023-05-15T09:26:59;2.13;;;1.40;;
41923;SDS011;27613;48.116;11.656;2023-05-15T09:29:29;3.55;;;1.98;;
41923;SDS011;27613;48.116;11.656;2023-05-15T09:31:56;2.17;;;1.65;;
41923;SDS011;27613;48.116;11.656;2023-05-15T09:34:29;2.72;;;1.88;;
41923;SDS011;27613;48.116;11.656;2023-05-15T09:36:55;1.90;;;1.50;;
41923;SDS011;27613;48.116;11.656;2023-05-15T09:39:21;2.53;;;1.67;;
41923;SDS011;27613;48.116;11.656;2023-05-15T09:41:47;5.65;;;1.92;;
41923;SDS011;27613;48.116;11.656;2023-05-15T09:44:23;2.95;;;1.98;;
41923;SDS011;27613;48.116;11.656;2023-05-15T09:46:50;3.22;;;1.98;;
41923;SDS011;27613;48.116;11.656;2023-05-15T09:49:16;3.13;;;2.05;;
41923;SDS011;27613;48.116;11.656;2023-05-15T09:51:45;2.50;;;1.88;;
41923;SDS011;27613;48.116;11.656;2023-05-15T09:54:18;1.65;;;1.30;;
41923;SDS011;27613;48.116;11.656;2023-05-15T09:56:46;1.83;;;1.45;;
41923;SDS011;27613;48.116;11.656;2023-05-15T09:59:16;2.22;;;1.58;;
41923;SDS011;27613;48.116;11.656;2023-05-15T10:01:43;2.22;;;1.67;;
41923;SDS011;27613;48.116;11.656;2023-05-15T10:04:10;2.08;;;1.45;;
41923;SDS011;27613;48.116;11.656;2023-05-15T10:06:37;2.03;;;1.63;;
41923;SDS011;27613;48.116;11.656;2023-05-15T10:09:03;5.28;;;1.67;;
41923;SDS011;27613;48.116;11.656;2023-05-15T10:11:31;2.22;;;1.60;;
41923;SDS011;27613;48.116;11.656;2023-05-15T10:13:59;1.90;;;1.50;;
41923;SDS011;27613;48.116;11.656;2023-05-15T10:16:26;2.47;;;1.65;;
41923;SDS011;27613;48.116;11.656;2023-05-15T10:18:53;5.07;;;1.48;;
41923;SDS011;27613;48.116;11.656;2023-05-15T10:21:21;2.58;;;1.45;;
41923;SDS011;27613;48.116;11.656;2023-05-15T10:23:47;6.50;;;1.58;;
41923;SDS011;27613;48.116;11.656;2023-05-15T10:26:15;1.35;;;1.25;;
41923;SDS011;27613;48.116;11.656;2023-05-15T10:28:47;3.28;;;1.30;;
41923;SDS011;27613;48.116;11.656;2023-05-15T10:31:13;2.15;;;1.40;;
41923;SDS011;27613;48.116;11.656;2023-05-15T10:33:42;1.40;;;1.20;;
41923;SDS011;27613;48.116;11.656;2023-05-15T10:36:08;1.42;;;1.27;;
41923;SDS011;27613;48.116;11.656;2023-05-15T10:38:34;1.25;;;1.15;;
41923;SDS011;27613;48.116;11.656;2023-05-15T10:41:01;2.65;;;1.63;;
41923;SDS011;27613;48.116;11.656;2023-05-15T10:43:29;1.48;;;1.15;;
41923;SDS011;27613;48.116;11.656;2023-05-15T10:45:55;2.10;;;1.23;;
41923;SDS011;27613;48.116;11.656;2023-05-15T10:48:22;0.93;;;0.90;;
41923;SDS011;27613;48.116;11.656;2023-05-15T10:50:48;1.58;;;1.20;;
41923;SDS011;27613;48.116;11.656;2023-05-15T10:53:15;1.73;;;1.25;;
41923;SDS011;27613;48.116;11.656;2023-05-15T10:55:40;1.40;;;1.00;;
41923;SDS011;27613;48.116;11.656;2023-05-15T10:58:09;1.42;;;1.02;;
41923;SDS011;27613;48.116;11.656;2023-05-15T11:00:41;1.50;;;1.17;;
41923;SDS011;27613;48.116;11.656;2023-05-15T11:03:12;2.58;;;1.70;;
41923;SDS011;27613;48.116;11.656;2023-05-15T11:08:37;2.38;;;1.63;;
41923;SDS011;27613;48.116;11.656;2023-05-15T11:11:04;2.38;;;1.77;;
41923;SDS011;27613;48.116;11.656;2023-05-15T11:21:57;4.03;;;1.83;;
41923;SDS011;27613;48.116;11.656;2023-05-15T11:24:45;3.05;;;1.45;;
41923;SDS011;27613;48.116;11.656;2023-05-15T11:27:15;1.52;;;1.17;;
41923;SDS011;27613;48.116;11.656;2023-05-15T11:33:18;3.72;;;1.73;;
41923;SDS011;27613;48.116;11.656;2023-05-15T11:35:32;1.77;;;1.35;;
41923;SDS011;27613;48.116;11.656;2023-05-15T11:45:29;6.15;;;2.08;;
41923;SDS011;27613;48.116;11.656;2023-05-15T11:47:56;2.17;;;1.73;;
41923;SDS011;27613;48.116;11.656;2023-05-15T11:50:24;3.22;;;1.90;;
41923;SDS011;27613;48.116;11.656;2023-05-15T11:52:51;3.60;;;2.05;;
41923;SDS011;27613;48.116;11.656;2023-05-15T11:55:17;2.45;;;1.70;;
41923;SDS011;27613;48.116;11.656;2023-05-15T11:57:46;2.60;;;1.90;;
41923;SDS011;27613;48.116;11.656;2023-05-15T12:00:12;3.30;;;1.98;;
41923;SDS011;27613;48.116;11.656;2023-05-15T12:02:38;2.80;;;1.65;;
41923;SDS011;27613;48.116;11.656;2023-05-15T12:05:07;2.67;;;1.92;;
41923;SDS011;27613;48.116;11.656;2023-05-15T12:07:36;2.78;;;2.15;;
41923;SDS011;27613;48.116;11.656;2023-05-15T12:10:05;6.28;;;2.25;;
41923;SDS011;27613;48.116;11.656;2023-05-15T12:12:34;3.55;;;2.38;;
41923;SDS011;27613;48.116;11.656;2023-05-15T12:15:00;2.33;;;1.80;;
41923;SDS011;27613;48.116;11.656;2023-05-15T12:17:26;2.70;;;2.00;;
41923;SDS011;27613;48.116;11.656;2023-05-15T12:19:52;3.78;;;2.30;;
41923;SDS011;27613;48.116;11.656;2023-05-15T12:22:20;3.30;;;2.08;;
41923;SDS011;27613;48.116;11.656;2023-05-15T12:24:46;3.88;;;3.10;;
41923;SDS011;27613;48.116;11.656;2023-05-15T12:27:11;3.95;;;3.13;;
41923;SDS011;27613;48.116;11.656;2023-05-15T12:29:38;3.97;;;3.30;;
41923;SDS011;27613;48.116;11.656;2023-05-15T12:32:05;3.95;;;2.83;;
41923;SDS011;27613;48.116;11.656;2023-05-15T12:34:31;3.85;;;2.85;;
41923;SDS011;27613;48.116;11.656;2023-05-15T12:36:57;4.20;;;2.78;;
41923;SDS011;27613;48.116;11.656;2023-05-15T12:39:24;4.03;;;2.95;;
41923;SDS011;27613;48.116;11.656;2023-05-15T12:41:50;3.70;;;2.78;;
41923;SDS011;27613;48.116;11.656;2023-05-15T12:44:18;3.95;;;2.75;;
41923;SDS011;27613;48.116;11.656;2023-05-15T12:46:45;3.47;;;2.22;;
41923;SDS011;27613;48.116;11.656;2023-05-15T12:49:11;5.70;;;3.20;;
41923;SDS011;27613;48.116;11.656;2023-05-15T12:51:43;6.80;;;2.80;;
41923;SDS011;27613;48.116;11.656;2023-05-15T12:54:19;3.45;;;2.30;;
41923;SDS011;27613;48.116;11.656;2023-05-15T12:56:48;3.97;;;2.67;;
41923;SDS011;27613;48.116;11.656;2023-05-15T12:59:13;3.30;;;2.22;;
41923;SDS011;27613;48.116;11.656;2023-05-15T13:01:40;2.30;;;1.67;;
41923;SDS011;27613;48.116;11.656;2023-05-15T13:04:08;1.90;;;1.58;;
41923;SDS011;27613;48.116;11.656;2023-05-15T13:06:36;3.03;;;2.40;;
41923;SDS011;27613;48.116;11.656;2023-05-15T13:09:03;3.15;;;1.88;;
41923;SDS011;27613;48.116;11.656;2023-05-15T13:11:29;2.42;;;1.80;;
41923;SDS011;27613;48.116;11.656;2023-05-15T13:13:58;3.15;;;2.00;;
41923;SDS011;27613;48.116;11.656;2023-05-15T13:16:24;11.38;;;1.70;;
41923;SDS011;27613;48.116;11.656;2023-05-15T13:18:53;1.88;;;1.48;;
41923;SDS011;27613;48.116;11.656;2023-05-15T13:21:22;2.22;;;1.70;;
41923;SDS011;27613;48.116;11.656;2023-05-15T13:23:48;2.70;;;1.83;;
41923;SDS011;27613;48.116;11.656;2023-05-15T13:26:14;1.83;;;1.42;;
41923;SDS011;27613;48.116;11.656;2023-05-15T13:28:40;2.35;;;1.63;;
41923;SDS011;27613;48.116;11.656;2023-05-15T13:31:06;2.85;;;2.15;;
41923;SDS011;27613;48.116;11.656;2023-05-15T13:33:31;1.92;;;1.48;;
41923;SDS011;27613;48.116;11.656;2023-05-15T13:35:58;2.42;;;1.60;;
41923;SDS011;27613;48.116;11.656;2023-05-15T13:38:23;2.38;;;1.85;;
41923;SDS011;27613;48.116;11.656;2023-05-15T13:40:49;1.77;;;1.45;;
41923;SDS011;27613;48.116;11.656;2023-05-15T13:43:14;1.30;;;1.10;;
41923;SDS011;27613;48.116;11.656;2023-05-15T13:45:40;7.65;;;5.30;;
41923;SDS011;27613;48.116;11.656;2023-05-15T13:48:05;2.75;;;1.90;;
41923;SDS011;27613;48.116;11.656;2023-05-15T13:50:31;3.63;;;2.65;;
41923;SDS011;27613;48.116;11.656;2023-05-15T13:52:56;2.67;;;2.25;;
41923;SDS011;27613;48.116;11.656;2023-05-15T13:55:22;2.83;;;1.92;;
41923;SDS011;27613;48.116;11.656;2023-05-15T13:57:49;4.13;;;2.72;;
41923;SDS011;27613;48.116;11.656;2023-05-15T14:00:16;3.42;;;2.00;;
41923;SDS011;27613;48.116;11.656;2023-05-15T14:02:42;9.35;;;6.13;;
41923;SDS011;27613;48.116;11.656;2023-05-15T14:05:08;9.82;;;5.40;;
41923;SDS011;27613;48.116;11.656;2023-05-15T14:07:35;11.13;;;7.65;;
41923;SDS011;27613;48.116;11.656;2023-05-15T14:10:01;2.95;;;1.90;;
41923;SDS011;27613;48.116;11.656;2023-05-15T14:12:27;2.40;;;1.80;;
41923;SDS011;27613;48.116;11.656;2023-05-15T14:14:53;8.30;;;3.33;;
41923;SDS011;27613;48.116;11.656;2023-05-15T14:17:18;4.55;;;2.95;;
41923;SDS011;27613;48.116;11.656;2023-05-15T14:19:44;3.55;;;1.83;;
41923;SDS011;27613;48.116;11.656;2023-05-15T14:22:09;2.55;;;1.80;;
41923;SDS011;27613;48.116;11.656;2023-05-15T14:24:35;2.63;;;2.08;;
41923;SDS011;27613;48.116;11.656;2023-05-15T14:27:01;1.92;;;1.55;;
41923;SDS011;27613;48.116;11.656;2023-05-15T14:29:26;2.13;;;1.38;;
41923;SDS011;27613;48.116;11.656;2023-05-15T14:31:52;1.75;;;1.17;;
41923;SDS011;27613;48.116;11.656;2023-05-15T14:34:17;1.50;;;1.17;;
41923;SDS011;27613;48.116;11.656;2023-05-15T14:36:43;2.38;;;1.73;;
41923;SDS011;27613;48.116;11.656;2023-05-15T14:39:10;2.55;;;1.10;;
41923;SDS011;27613;48.116;11.656;2023-05-15T14:41:37;1.40;;;1.17;;
41923;SDS011;27613;48.116;11.656;2023-05-15T14:44:03;0.63;;;0.63;;
41923;SDS011;27613;48.116;11.656;2023-05-15T14:46:29;2.05;;;1.10;;
41923;SDS011;27613;48.116;11.656;2023-05-15T14:48:54;0.80;;;0.80;;
41923;SDS011;27613;48.116;11.656;2023-05-15T14:51:20;2.03;;;1.17;;
41923;SDS011;27613;48.116;11.656;2023-05-15T14:53:45;1.13;;;1.02;;
41923;SDS011;27613;48.116;11.656;2023-05-15T14:56:11;1.33;;;0.90;;
41923;SDS011;27613;48.116;11.656;2023-05-15T14:58:36;1.80;;;1.13;;
41923;SDS011;27613;48.116;11.656;2023-05-15T15:01:02;1.40;;;0.90;;
41923;SDS011;27613;48.116;11.656;2023-05-15T15:03:27;0.98;;;0.80;;
41923;SDS011;27613;48.116;11.656;2023-05-15T15:05:54;1.13;;;0.98;;